Time;durP1;ratioP1;P1;durP2;ratioP2;P2;SDS_P1;SDS_P2;PMS_P1;PMS_P2;Temp;Humidity;BMP_temperature;BMP_pressure;BME280_temperature;BME280_humidity;BME280_pressure;Samples;Min_cycle;Max_cycle;Signal;HPM_P1;HPM_P2
2023/07/03 00:03:23;;;;;;;13.27;6.75;;;;;;;20.79;38.33;99432.97;10364951;28;20275;-71
2023/07/03 00:08:24;;;;;;;11.13;6.70;;;;;;;19.98;38.40;99528.88;10358291;28;20296;-70
2023/07/03 00:13:26;;;;;;;12.90;7.05;;;;;;;20.61;38.06;99453.19;10365801;28;20316;-71
2023/07/03 00:18:29;;;;;;;14.10;7.65;;;;;;;18.55;41.09;99471.44;10365143;28;20225;-70
2023/07/03 00:23:30;;;;;;;12.05;6.95;;;;;;;19.91;39.92;99377.03;10374739;28;20324;-71
2023/07/03 00:28:32;;;;;;;13.82;6.97;;;;;;;20.71;38.32;99420.66;10364996;28;20301;-70
2023/07/03 00:33:34;;;;;;;11.30;6.88;;;;;;;20.64;38.51;99436.38;10371319;28;20264;-70
2023/07/03 00:38:35;;;;;;;11.65;6.88;;;;;;;19.06;39.48;99531.94;10357634;28;20209;-70
2023/07/03 00:43:41;;;;;;;12.68;7.10;;;;;;;19.29;40.18;99437.91;10367412;28;20323;-70
2023/07/03 00:48:43;;;;;;;12.07;6.97;;;;;;;20.18;39.01;99411.53;10361166;28;20213;-70
2023/07/03 00:53:45;;;;;;;12.48;7.13;;;;;;;18.91;40.72;99428.63;10367378;28;20321;-70
2023/07/03 00:58:47;;;;;;;11.55;7.00;;;;;;;19.77;39.96;99395.59;10356132;28;20209;-70
2023/07/03 01:04:01;;;;;;;15.00;7.83;;;;;;;19.85;39.85;99370.72;10369977;28;20254;-70
2023/07/03 01:09:04;;;;;;;13.40;7.35;;;;;;;19.20;40.61;99383.28;10357992;28;20670;-70
2023/07/03 01:14:07;;;;;;;14.70;7.60;;;;;;;20.10;39.47;99394.56;10364560;28;20287;-70
2023/07/03 01:19:22;;;;;;;13.85;7.40;;;;;;;19.25;40.28;99447.59;10370994;28;20750;-70
2023/07/03 01:24:32;;;;;;;11.23;7.13;;;;;;;19.77;39.35;99479.75;10360601;28;20237;-70
2023/07/03 01:29:35;;;;;;;14.65;7.60;;;;;;;19.91;39.73;99453.88;10359372;28;20213;-70
2023/07/03 01:34:43;;;;;;;13.20;7.43;;;;;;;20.38;39.07;99457.06;10359608;28;20708;-70
2023/07/03 01:39:46;;;;;;;12.98;7.35;;;;;;;19.86;39.78;99385.94;10358134;28;20596;-70
2023/07/03 01:44:47;;;;;;;13.10;6.88;;;;;;;19.16;40.70;99467.00;10362802;28;20671;-70
2023/07/03 01:49:49;;;;;;;13.73;7.38;;;;;;;18.76;40.99;99484.28;10361874;28;20746;-70
2023/07/03 01:55:17;;;;;;;11.55;6.55;;;;;;;19.41;39.86;99492.84;10362962;28;20296;-70
2023/07/03 02:00:27;;;;;;;12.77;6.75;;;;;;;19.45;40.31;99458.72;10357917;28;20591;-70
2023/07/03 02:05:33;;;;;;;14.10;7.87;;;;;;;18.69;41.19;99483.59;10349284;28;20236;-70
2023/07/03 02:10:36;;;;;;;11.60;7.13;;;;;;;19.53;40.83;99393.13;10363975;28;20241;-70
2023/07/03 02:15:38;;;;;;;12.00;7.00;;;;;;;19.32;40.52;99454.47;10364297;28;20204;-70
2023/07/03 02:20:40;;;;;;;10.70;6.75;;;;;;;18.95;41.59;99427.94;10366430;28;20290;-70
2023/07/03 02:25:43;;;;;;;12.68;7.55;;;;;;;18.87;41.70;99409.34;10354417;28;20320;-70
2023/07/03 02:30:46;;;;;;;16.50;7.53;;;;;;;19.14;41.45;99366.09;10363907;28;20780;-70
2023/07/03 02:35:48;;;;;;;11.50;6.90;;;;;;;19.50;40.65;99404.53;10357463;28;20291;-70
2023/07/03 02:40:53;;;;;;;14.75;7.68;;;;;;;18.73;41.93;99441.41;10359970;28;20237;-70
2023/07/03 02:46:02;;;;;;;11.60;7.28;;;;;;;19.01;41.37;99450.50;10358404;28;20256;-70
2023/07/03 02:51:04;;;;;;;11.02;7.75;;;;;;;19.00;41.53;99419.88;10361094;28;20232;-70
2023/07/03 02:56:06;;;;;;;12.40;6.80;;;;;;;18.64;42.05;99438.28;10354341;28;20206;-70
2023/07/03 03:01:09;;;;;;;13.05;6.60;;;;;;;19.39;41.31;99376.44;10362605;28;20287;-70
2023/07/03 03:06:11;;;;;;;12.45;6.55;;;;;;;19.34;41.04;99424.41;10360541;28;20262;-70
2023/07/03 03:11:13;;;;;;;11.68;6.55;;;;;;;18.89;41.66;99464.13;10363078;28;20300;-70
2023/07/03 03:16:16;;;;;;;10.52;6.05;;;;;;;20.17;40.22;99369.94;10362114;28;20304;-70
2023/07/03 03:21:18;;;;;;;13.60;6.70;;;;;;;20.17;40.52;99418.84;10307624;23;20353;-36
2023/07/03 03:26:20;;;;;;;12.10;6.53;;;;;;;20.45;39.92;99433.22;10286657;28;20247;-36
2023/07/03 03:31:22;;;;;;;12.35;6.88;;;;;;;19.63;40.28;99551.78;10295770;28;20218;-36
2023/07/03 03:36:24;;;;;;;10.27;6.00;;;;;;;20.52;39.90;99496.34;10270416;28;20610;-36
2023/07/03 03:41:28;;;;;;;14.82;7.53;;;;;;;19.50;41.47;99488.66;10278198;28;20210;-36
2023/07/03 03:46:30;;;;;;;12.23;7.43;;;;;;;19.57;41.62;99459.44;10278103;28;20227;-36
2023/07/03 03:51:32;;;;;;;11.95;6.57;;;;;;;19.67;41.75;99422.63;10288790;28;20685;-36
2023/07/03 03:56:34;;;;;;;9.60;5.82;;;;;;;18.39;43.11;99487.44;10286484;28;20344;-36
2023/07/03 04:01:35;;;;;;;12.68;7.03;;;;;;;19.11;42.72;99442.53;10278186;28;20269;-36
2023/07/03 04:06:38;;;;;;;13.65;6.80;;;;;;;18.98;42.58;99456.47;10281159;28;20291;-36
2023/07/03 04:11:39;;;;;;;11.35;6.38;;;;;;;18.90;42.63;99441.38;10277218;28;20288;-36
2023/07/03 04:16:43;;;;;;;11.25;7.15;;;;;;;19.11;42.68;99411.88;10280762;28;20225;-36
2023/07/03 04:21:45;;;;;;;13.63;6.43;;;;;;;18.44;43.52;99446.91;10284987;28;21149;-36
2023/07/03 04:26:47;;;;;;;9.40;5.90;;;;;;;17.92;43.78;99509.28;10281158;28;20724;-36
2023/07/03 04:31:49;;;;;;;8.90;6.05;;;;;;;18.17;43.80;99475.63;10287378;28;20218;-36
2023/07/03 04:36:51;;;;;;;16.17;6.00;;;;;;;18.01;44.19;99479.94;10296103;28;20223;-36
2023/07/03 04:41:53;;;;;;;11.57;6.00;;;;;;;18.31;43.93;99458.03;10286260;28;20606;-36
2023/07/03 04:46:57;;;;;;;11.20;6.25;;;;;;;19.28;42.90;99442.50;10288191;28;20606;-36
2023/07/03 04:52:00;;;;;;;13.23;5.95;;;;;;;18.81;43.14;99494.34;10283313;28;20214;-36
2023/07/03 04:57:02;;;;;;;11.45;6.32;;;;;;;18.83;43.09;99528.28;10292006;28;20222;-36
2023/07/03 05:02:04;;;;;;;11.60;5.85;;;;;;;19.84;42.16;99455.97;10283341;28;20202;-36
2023/07/03 05:07:05;;;;;;;10.93;6.55;;;;;;;19.87;42.19;99443.75;10281625;28;20291;-36
2023/07/03 05:12:08;;;;;;;10.40;5.10;;;;;;;18.91;43.11;99527.06;10283964;28;20206;-36
2023/07/03 05:17:09;;;;;;;11.68;6.10;;;;;;;19.55;42.62;99494.16;10282471;28;20223;-35
2023/07/03 05:22:11;;;;;;;11.10;6.10;;;;;;;18.86;43.22;99527.00;10284617;28;20238;-36
2023/07/03 05:27:13;;;;;;;9.95;6.03;;;;;;;17.84;44.73;99542.13;10279286;28;20239;-36
2023/07/03 05:32:15;;;;;;;10.68;5.85;;;;;;;17.85;45.71;99457.16;10286768;28;20212;-36
2023/07/03 05:37:17;;;;;;;11.93;6.17;;;;;;;17.47;45.48;99558.59;10287807;28;20350;-36
2023/07/03 05:42:19;;;;;;;10.23;6.20;;;;;;;17.34;45.78;99514.53;10290445;28;20689;-36
2023/07/03 05:47:21;;;;;;;10.50;6.43;;;;;;;16.79;45.93;99585.88;10283769;28;20230;-36
2023/07/03 05:52:23;;;;;;;12.50;6.27;;;;;;;17.09;45.58;99547.19;10289503;28;20225;-36
2023/07/03 05:57:25;;;;;;;10.67;5.57;;;;;;;16.85;45.64;99589.53;10286897;28;20325;-36
2023/07/03 06:02:27;;;;;;;11.70;5.80;;;;;;;18.74;43.41;99513.53;10288411;28;20670;-35
2023/07/03 06:07:29;;;;;;;10.47;6.07;;;;;;;18.86;43.48;99537.84;10286210;28;20250;-36
2023/07/03 06:12:31;;;;;;;12.23;5.80;;;;;;;17.72;44.50;99575.44;10282631;28;20692;-36
2023/07/03 06:17:32;;;;;;;10.17;5.40;;;;;;;18.29;44.20;99525.19;10286727;28;20846;-36
2023/07/03 06:22:34;;;;;;;12.57;6.43;;;;;;;17.76;43.90;99656.97;10282453;28;20246;-36
2023/07/03 06:27:36;;;;;;;9.93;5.70;;;;;;;17.84;43.88;99629.53;10290689;28;20230;-36
2023/07/03 06:32:38;;;;;;;11.53;5.73;;;;;;;17.91;43.17;99716.03;10282453;28;20214;-36
2023/07/03 06:37:40;;;;;;;8.40;4.63;;;;;;;18.82;42.77;99621.50;10286438;28;20237;-37
2023/07/03 06:42:43;;;;;;;9.57;4.37;;;;;;;17.45;43.91;99641.88;10283574;28;20262;-36
2023/07/03 06:47:44;;;;;;;6.93;4.50;;;;;;;19.22;41.82;99589.16;10286151;28;20242;-36
2023/07/03 06:52:47;;;;;;;10.10;4.23;;;;;;;18.12;42.68;99728.19;10287763;28;20345;-36
2023/07/03 06:57:49;;;;;;;10.33;4.50;;;;;;;16.87;44.05;99706.34;10285886;28;20243;-35
2023/07/03 07:02:50;;;;;;;8.60;4.17;;;;;;;18.28;42.59;99656.19;10287121;28;20586;-36
2023/07/03 07:07:52;;;;;;;9.50;4.47;;;;;;;20.08;41.09;99640.34;10279152;28;20258;-35
2023/07/03 07:12:54;;;;;;;10.80;4.73;;;;;;;20.69;40.86;99632.94;10278945;28;20984;-36
2023/07/03 07:17:56;;;;;;;10.15;4.65;;;;;;;19.74;41.03;99675.72;10282868;28;20667;-36
2023/07/03 07:22:58;;;;;;;8.87;3.87;;;;;;;19.17;41.65;99704.59;10291957;28;20243;-36
2023/07/03 07:28:00;;;;;;;13.73;4.63;;;;;;;19.93;41.21;99651.84;10296420;28;20661;-36
2023/07/03 07:33:02;;;;;;;13.07;4.97;;;;;;;19.51;40.99;99726.34;10300483;28;20202;-36
2023/07/03 07:38:04;;;;;;;8.70;3.97;;;;;;;19.13;41.68;99714.31;10291694;28;20227;-36
2023/07/03 07:43:07;;;;;;;9.27;4.57;;;;;;;19.91;41.04;99643.94;10294277;28;20210;-36
2023/07/03 07:48:08;;;;;;;8.23;3.35;;;;;;;18.40;42.17;99751.00;10290118;28;20281;-36
2023/07/03 07:53:10;;;;;;;8.10;4.22;;;;;;;19.98;40.59;99670.09;10288400;28;20214;-36
2023/07/03 07:58:13;;;;;;;6.05;3.10;;;;;;;19.86;40.28;99686.50;10292830;28;20666;-35
2023/07/03 08:03:14;;;;;;;7.50;3.83;;;;;;;20.18;40.79;99640.53;10296799;28;20211;-35
2023/07/03 08:08:16;;;;;;;8.90;3.17;;;;;;;19.92;40.66;99686.31;10285964;28;20294;-36
2023/07/03 08:13:18;;;;;;;7.47;3.10;;;;;;;18.99;40.94;99710.22;10288413;28;20661;-35
2023/07/03 08:18:22;;;;;;;5.78;3.05;;;;;;;19.53;40.21;99732.34;10284807;28;20731;-35
2023/07/03 08:23:24;;;;;;;5.68;2.80;;;;;;;19.85;39.51;99720.13;10287298;28;20274;-35
2023/07/03 08:28:26;;;;;;;5.15;2.63;;;;;;;19.27;39.58;99770.97;10285225;28;20712;-35
2023/07/03 08:33:28;;;;;;;4.57;3.00;;;;;;;20.12;40.46;99646.91;10287876;28;20831;-35
2023/07/03 08:38:30;;;;;;;8.93;3.20;;;;;;;20.84;38.86;99636.94;10294868;28;20234;-35
2023/07/03 08:43:41;;;;;;;8.00;3.83;;;;;;;18.08;42.23;99725.13;10291288;28;20246;-35
2023/07/03 08:48:44;;;;;;;7.97;3.67;;;;;;;19.98;40.77;99649.19;10294415;28;20242;-37
2023/07/03 08:53:56;;;;;;;6.70;2.90;;;;;;;19.32;40.33;99741.22;10294391;28;20213;-35
2023/07/03 08:58:58;;;;;;;6.70;3.30;;;;;;;21.20;39.70;99665.28;10300046;28;20223;-36
2023/07/03 09:04:08;;;;;;;7.43;3.13;;;;;;;21.38;38.97;99642.34;10284201;28;20355;-35
2023/07/03 09:09:25;;;;;;;7.20;3.35;;;;;;;21.13;38.32;99721.00;10299171;28;20649;-35
2023/07/03 09:14:32;;;;;;;7.63;3.15;;;;;;;19.49;40.14;99765.66;10292880;28;20296;-35
2023/07/03 09:19:37;;;;;;;7.50;3.33;;;;;;;18.77;41.37;99704.63;10288142;28;20241;-35
2023/07/03 09:24:43;;;;;;;5.25;2.50;;;;;;;19.23;40.21;99721.78;10284449;28;20210;-35
2023/07/03 09:29:45;;;;;;;10.50;2.72;;;;;;;19.82;40.26;99705.16;10300500;28;20711;-35
2023/07/03 09:35:11;;;;;;;4.88;2.70;;;;;;;18.46;42.06;99685.88;10289688;28;20644;-35
2023/07/03 09:40:18;;;;;;;7.53;2.78;;;;;;;21.28;39.27;99669.44;10294489;28;20234;-35
2023/07/03 09:45:23;;;;;;;4.00;2.22;;;;;;;18.54;41.24;99774.09;10279252;28;20616;-35
2023/07/03 09:50:30;;;;;;;4.65;2.47;;;;;;;20.46;40.06;99652.25;10293393;28;20231;-35
2023/07/03 09:55:34;;;;;;;5.07;2.80;;;;;;;18.82;41.87;99721.81;10289480;28;20203;-35
2023/07/03 10:00:54;;;;;;;4.13;2.42;;;;;;;21.05;39.54;99646.94;10290060;28;20242;-35
2023/07/03 10:06:03;;;;;;;6.72;2.75;;;;;;;20.68;40.48;99636.75;10292768;28;21091;-35
2023/07/03 10:11:09;;;;;;;9.20;2.60;;;;;;;21.51;38.80;99721.91;10278746;28;20677;-35
2023/07/03 10:16:13;;;;;;;7.43;2.83;;;;;;;21.52;39.26;99701.78;10286134;28;20231;-35
2023/07/03 10:21:20;;;;;;;4.57;2.38;;;;;;;21.88;38.81;99762.81;10287683;28;20245;-35
2023/07/03 10:26:26;;;;;;;5.55;2.38;;;;;;;21.40;39.23;99772.72;10288709;28;20290;-35
2023/07/03 10:31:39;;;;;;;4.00;2.15;;;;;;;21.19;39.22;99728.97;10294626;28;20215;-35
2023/07/03 10:36:49;;;;;;;3.78;1.90;;;;;;;21.21;39.23;99702.31;10283267;28;20635;-35
2023/07/03 10:41:57;;;;;;;3.40;2.05;;;;;;;19.75;39.68;99821.22;10293298;28;20697;-35
2023/07/03 10:47:14;;;;;;;2.55;1.60;;;;;;;21.81;38.76;99731.41;10288494;28;20231;-35
2023/07/03 10:52:25;;;;;;;4.28;1.90;;;;;;;21.72;38.87;99699.22;10287989;28;20210;-37
2023/07/03 10:57:56;;;;;;;2.67;1.80;;;;;;;21.97;38.66;99667.81;10290088;28;20236;-37
2023/07/03 11:06:46;;;;;;;2.28;1.70;;;;;;;20.03;41.50;99664.72;10436496;28;20861;-69
2023/07/03 11:11:54;;;;;;;1.83;1.50;;;;;;;21.38;39.22;99653.22;10433786;28;20247;-69
2023/07/03 11:17:05;;;;;;;2.05;1.55;;;;;;;21.03;39.49;99653.72;10442294;28;20215;-69
2023/07/03 11:22:18;;;;;;;2.60;1.60;;;;;;;21.08;38.80;99693.75;10441795;28;20224;-69
2023/07/03 11:27:45;;;;;;;2.78;1.73;;;;;;;21.07;38.98;99727.44;10433373;28;20252;-69
2023/07/03 11:32:50;;;;;;;2.63;1.90;;;;;;;21.23;39.42;99705.59;10441137;28;20235;-69
2023/07/03 11:38:04;;;;;;;1.75;1.50;;;;;;;21.46;39.22;99668.28;10439710;28;20208;-69
2023/07/03 11:43:08;;;;;;;4.03;1.80;;;;;;;21.14;39.87;99616.53;10441782;28;20263;-69
2023/07/03 11:48:39;;;;;;;3.10;1.88;;;;;;;20.75;39.39;99739.03;10440337;28;20982;-69
2023/07/03 11:53:56;;;;;;;2.10;1.80;;;;;;;20.46;40.18;99693.88;10421987;28;20302;-68
2023/07/03 11:59:05;;;;;;;2.25;1.33;;;;;;;21.70;39.03;99600.63;10438467;28;20242;-69
2023/07/03 12:04:08;;;;;;;2.03;1.42;;;;;;;21.65;39.61;99591.63;10433884;28;20268;-69
2023/07/03 12:09:22;;;;;;;2.38;1.58;;;;;;;20.10;40.43;99676.22;10439747;28;20632;-69
2023/07/03 12:14:39;;;;;;;3.15;1.58;;;;;;;21.42;39.36;99621.72;10418754;28;20661;-68
2023/07/03 12:19:41;;;;;;;2.67;1.48;;;;;;;21.90;38.43;99678.91;10410332;28;20316;-69
2023/07/03 12:24:43;;;;;;;1.88;1.70;;;;;;;21.65;39.15;99622.38;10400685;28;20301;-68
2023/07/03 12:29:47;;;;;;;4.40;1.58;;;;;;;21.17;39.10;99668.53;10411429;28;20294;-69
2023/07/03 12:34:49;;;;;;;3.90;1.63;;;;;;;20.00;40.89;99646.22;10409667;28;20282;-68
2023/07/03 12:39:51;;;;;;;2.03;1.30;;;;;;;20.53;39.73;99749.91;10398708;28;20235;-69
2023/07/03 12:45:11;;;;;;;3.60;1.60;;;;;;;21.23;40.12;99587.78;10411828;28;20769;-69
2023/07/03 12:50:18;;;;;;;4.78;2.08;;;;;;;21.84;39.51;99628.22;10411287;28;20220;-68
2023/07/03 12:55:21;;;;;;;1.50;1.40;;;;;;;22.32;39.18;99636.38;10417082;28;20220;-68
2023/07/03 13:00:26;;;;;;;3.10;1.50;;;;;;;20.20;40.27;99676.41;10402985;28;20294;-69
2023/07/03 13:05:34;;;;;;;3.30;1.92;;;;;;;20.84;39.69;99713.91;10410423;28;20359;-69
2023/07/03 13:10:37;;;;;;;4.55;1.88;;;;;;;22.57;38.24;99621.22;10409051;28;20620;-69
2023/07/03 13:15:44;;;;;;;4.55;2.08;;;;;;;21.73;38.52;99692.69;10405859;28;20213;-68
2023/07/03 13:20:52;;;;;;;3.60;1.73;;;;;;;23.30;37.44;99609.28;10411732;28;20229;-69
2023/07/03 13:25:56;;;;;;;3.95;1.85;;;;;;;22.30;38.92;99654.88;10403441;28;20274;-69
2023/07/03 13:31:15;;;;;;;5.28;1.95;;;;;;;23.16;37.34;99634.44;10409988;28;20235;-69
2023/07/03 13:36:22;;;;;;;3.08;1.95;;;;;;;21.10;39.41;99710.63;10409033;28;20204;-69
2023/07/03 13:41:25;;;;;;;3.13;1.85;;;;;;;20.57;40.77;99666.81;10402272;28;20232;-68
2023/07/03 13:46:27;;;;;;;3.38;1.83;;;;;;;21.49;40.32;99639.69;10405660;28;20312;-68
2023/07/03 13:51:29;;;;;;;2.58;1.80;;;;;;;22.14;41.06;99629.50;10405522;28;20263;-68
2023/07/03 13:56:33;;;;;;;4.38;2.25;;;;;;;22.38;40.30;99654.38;10403304;28;20938;-70
2023/07/03 14:01:36;;;;;;;4.30;1.83;;;;;;;22.68;40.61;99585.50;10398236;28;20887;-71
2023/07/03 14:06:38;;;;;;;4.53;1.80;;;;;;;22.37;39.72;99674.56;10413878;28;20279;-72
2023/07/03 14:11:41;;;;;;;2.53;1.90;;;;;;;23.78;38.78;99555.16;10408631;28;20236;-71
2023/07/03 14:16:44;;;;;;;3.25;1.50;;;;;;;23.12;38.86;99592.38;10412497;28;20676;-71
2023/07/03 14:21:45;;;;;;;4.38;1.80;;;;;;;21.98;39.81;99655.81;10411770;28;20263;-71
2023/07/03 14:26:47;;;;;;;2.63;1.80;;;;;;;22.22;40.04;99590.84;10412166;28;20290;-71
2023/07/03 14:31:49;;;;;;;3.03;1.90;;;;;;;23.38;38.28;99617.78;10403033;28;20722;-71
2023/07/03 14:36:51;;;;;;;3.42;1.85;;;;;;;22.83;39.45;99595.63;10402327;28;20278;-71
2023/07/03 14:41:53;;;;;;;2.50;1.55;;;;;;;23.73;38.54;99563.38;10402111;28;20324;-70
2023/07/03 14:46:54;;;;;;;2.55;1.88;;;;;;;23.78;37.45;99579.75;10403538;28;20227;-69
2023/07/03 14:51:56;;;;;;;1.70;1.60;;;;;;;22.74;38.44;99640.91;10412096;28;20303;-68
2023/07/03 14:56:58;;;;;;;1.90;1.60;;;;;;;23.63;38.02;99570.50;10405144;28;20246;-67
2023/07/03 15:05:21;;;;;;;3.13;1.52;;;;;;;22.57;40.30;99514.88;10440433;28;20824;-68
2023/07/03 15:10:23;;;;;;;2.08;1.77;;;;;;;21.48;40.29;99534.63;10442564;28;20321;-68
2023/07/03 15:15:25;;;;;;;3.67;1.80;;;;;;;22.38;39.54;99517.28;10443311;28;20315;-66
2023/07/03 15:20:26;;;;;;;2.92;2.13;;;;;;;22.31;39.13;99528.44;10435758;28;20246;-68
2023/07/03 15:25:28;;;;;;;4.43;1.85;;;;;;;22.57;39.05;99502.09;10426852;28;20207;-67
2023/07/03 15:30:30;;;;;;;2.90;1.70;;;;;;;21.76;39.32;99576.97;10451788;28;20227;-66
2023/07/03 15:35:32;;;;;;;2.67;1.80;;;;;;;20.71;40.99;99562.00;10437816;28;20208;-69
2023/07/03 15:40:33;;;;;;;2.42;1.50;;;;;;;20.55;43.60;99492.25;10436317;28;20312;-69
2023/07/03 15:45:35;;;;;;;3.45;1.75;;;;;;;21.22;43.03;99469.13;10441440;28;20215;-69
2023/07/03 15:50:37;;;;;;;2.00;1.30;;;;;;;21.96;42.35;99462.72;10435232;28;20293;-70
2023/07/03 15:55:38;;;;;;;2.47;1.70;;;;;;;22.10;42.20;99498.44;10444461;28;20734;-67
2023/07/03 16:00:40;;;;;;;1.77;1.40;;;;;;;22.06;41.41;99501.94;10435453;28;20263;-67
2023/07/03 16:05:42;;;;;;;2.53;1.67;;;;;;;22.68;40.24;99557.44;10438119;28;20261;-71
2023/07/03 16:10:44;;;;;;;1.95;1.38;;;;;;;22.11;41.64;99542.84;10441165;28;20280;-69
2023/07/03 16:15:46;;;;;;;2.55;1.83;;;;;;;23.92;38.97;99511.66;10406030;28;20205;-70
2023/07/03 16:20:57;;;;;;;2.55;1.70;;;;;;;24.12;39.24;99536.16;10416150;28;20232;-71
2023/07/03 16:26:00;;;;;;;5.03;2.10;;;;;;;23.86;39.35;99540.94;10407606;28;20714;-69
2023/07/03 16:31:10;;;;;;;3.10;1.67;;;;;;;23.73;40.31;99492.34;10417494;28;20269;-72
2023/07/03 16:36:20;;;;;;;3.38;1.70;;;;;;;22.33;41.38;99516.16;10408293;28;20209;-71
2023/07/03 16:41:23;;;;;;;2.22;1.55;;;;;;;22.91;40.23;99523.34;10418977;28;20256;-70
2023/07/03 16:46:27;;;;;;;2.90;1.70;;;;;;;22.88;40.14;99548.44;10405868;28;20292;-71
2023/07/03 16:51:29;;;;;;;2.40;1.90;;;;;;;21.81;41.97;99570.72;10406321;28;20608;-68
2023/07/03 16:56:32;;;;;;;2.15;1.83;;;;;;;22.03;42.14;99532.44;10410295;28;20232;-70
2023/07/03 17:01:33;;;;;;;3.25;1.67;;;;;;;20.22;44.25;99590.03;10418668;28;20622;-70
2023/07/03 17:06:36;;;;;;;3.35;1.80;;;;;;;20.05;46.39;99551.22;10416981;28;20243;-70
2023/07/03 17:11:38;;;;;;;2.58;1.67;;;;;;;20.25;46.52;99524.31;10415007;28;20255;-70
2023/07/03 17:16:39;;;;;;;3.20;1.95;;;;;;;20.67;46.62;99506.53;10409015;28;20225;-70
2023/07/03 17:21:42;;;;;;;2.00;1.70;;;;;;;20.21;47.15;99544.09;10408112;28;20716;-69
2023/07/03 17:26:44;;;;;;;3.33;1.92;;;;;;;20.23;46.73;99550.13;10396281;28;20286;-69
2023/07/03 17:31:46;;;;;;;2.30;1.98;;;;;;;19.01;48.69;99529.13;10406838;28;20610;-68
2023/07/03 17:36:47;;;;;;;4.93;2.30;;;;;;;20.88;46.84;99480.34;10412360;28;21196;-68
2023/07/03 17:41:49;;;;;;;3.83;2.08;;;;;;;18.84;50.39;99515.56;10411067;28;20274;-70
2023/07/03 17:46:51;;;;;;;4.05;2.30;;;;;;;19.36;50.39;99509.06;10409219;28;20646;-72
2023/07/03 17:51:53;;;;;;;3.40;2.33;;;;;;;20.92;48.37;99489.63;10408281;28;20223;-71
2023/07/03 17:56:55;;;;;;;3.28;2.58;;;;;;;20.30;49.18;99518.94;10416603;28;20243;-70
2023/07/03 18:01:57;;;;;;;2.50;2.03;;;;;;;22.07;46.83;99470.91;10405646;28;20268;-69
2023/07/03 18:06:59;;;;;;;3.75;2.20;;;;;;;20.63;48.05;99541.56;10412339;28;20213;-70
2023/07/03 18:12:01;;;;;;;4.60;2.33;;;;;;;21.06;47.24;99549.84;10410224;28;20297;-69
2023/07/03 18:17:03;;;;;;;2.83;2.13;;;;;;;21.73;45.84;99591.13;10410555;28;20625;-71
2023/07/03 18:22:05;;;;;;;4.03;2.33;;;;;;;21.27;46.57;99561.66;10402545;28;20268;-68
2023/07/03 18:27:07;;;;;;;3.83;2.20;;;;;;;21.18;47.00;99568.69;10396488;28;20236;-67
2023/07/03 18:32:11;;;;;;;2.65;2.20;;;;;;;21.62;46.09;99573.09;10401607;28;20240;-69
2023/07/03 18:37:13;;;;;;;4.38;1.90;;;;;;;21.72;45.92;99611.28;10405906;28;20215;-70
2023/07/03 18:42:15;;;;;;;2.95;2.50;;;;;;;20.15;48.46;99567.66;10397704;28;20315;-71
2023/07/03 18:47:16;;;;;;;4.55;2.20;;;;;;;21.88;45.87;99577.59;10413374;28;20295;-71
2023/07/03 18:52:18;;;;;;;3.08;2.30;;;;;;;23.44;43.55;99517.56;10404421;28;20781;-73
2023/07/03 18:57:20;;;;;;;2.30;1.90;;;;;;;21.34;45.91;99633.03;10402609;28;20212;-72
2023/07/03 19:02:22;;;;;;;2.42;1.90;;;;;;;21.68;45.99;99586.47;10395575;28;20682;-70
2023/07/03 19:07:24;;;;;;;5.57;2.85;;;;;;;22.02;45.01;99613.38;10414502;28;20221;-70
2023/07/03 19:12:27;;;;;;;3.47;2.22;;;;;;;21.90;45.56;99590.94;10405018;28;20746;-70
2023/07/03 19:17:28;;;;;;;4.10;2.22;;;;;;;20.76;48.12;99593.88;10411834;28;20240;-69
2023/07/03 19:22:32;;;;;;;5.15;2.30;;;;;;;22.74;44.89;99520.06;10399984;28;20269;-69
2023/07/03 19:27:33;;;;;;;3.67;2.38;;;;;;;22.27;44.83;99598.22;10402527;28;20276;-70
2023/07/03 19:32:35;;;;;;;3.40;2.08;;;;;;;21.17;47.37;99596.97;10412819;28;20320;-70
2023/07/03 19:37:37;;;;;;;3.35;2.22;;;;;;;21.45;46.65;99582.25;10417942;28;20219;-69
2023/07/03 19:42:39;;;;;;;4.57;2.47;;;;;;;21.43;46.46;99589.84;10399233;28;20332;-69
2023/07/03 19:47:40;;;;;;;3.50;2.17;;;;;;;21.89;45.96;99578.41;10402045;28;20988;-69
2023/07/03 19:52:42;;;;;;;4.20;2.22;;;;;;;22.02;45.80;99564.31;10403032;28;20233;-70
2023/07/03 19:57:44;;;;;;;2.83;2.08;;;;;;;21.97;46.20;99573.28;10421506;28;20290;-69
2023/07/03 20:02:47;;;;;;;2.85;1.90;;;;;;;20.91;47.86;99614.97;10415790;28;20236;-69
2023/07/03 20:07:50;;;;;;;2.75;2.22;;;;;;;21.36;47.07;99562.88;10416644;28;20204;-70
2023/07/03 20:12:52;;;;;;;3.50;2.28;;;;;;;21.07;47.45;99624.09;10407175;28;20698;-72
2023/07/03 20:17:54;;;;;;;3.15;2.25;;;;;;;21.69;46.01;99615.31;10410995;28;20307;-68
2023/07/03 20:22:56;;;;;;;3.15;2.70;;;;;;;21.23;46.78;99648.44;10408065;28;20235;-68
2023/07/03 20:27:57;;;;;;;6.38;2.10;;;;;;;21.63;45.52;99642.78;10405114;28;20223;-69
2023/07/03 20:32:59;;;;;;;2.40;2.00;;;;;;;21.26;46.16;99652.56;10417542;28;20208;-69
2023/07/03 20:38:01;;;;;;;3.70;2.15;;;;;;;20.45;47.49;99647.91;10412615;28;20282;-69
2023/07/03 20:43:02;;;;;;;2.50;2.20;;;;;;;20.90;46.89;99611.41;10413468;28;20318;-69
2023/07/03 20:48:04;;;;;;;5.30;2.20;;;;;;;21.38;45.80;99645.06;10412518;28;20211;-69
2023/07/03 20:53:10;;;;;;;2.20;1.88;;;;;;;20.75;46.58;99658.31;10413778;28;20208;-68
2023/07/03 20:58:12;;;;;;;2.67;1.92;;;;;;;20.12;47.61;99669.47;10411509;28;20697;-69
2023/07/03 21:03:14;;;;;;;3.47;1.90;;;;;;;19.69;47.80;99684.59;10409813;28;20268;-69
2023/07/03 21:08:16;;;;;;;3.97;2.15;;;;;;;20.50;47.00;99642.53;10409021;28;20217;-68
2023/07/03 21:13:18;;;;;;;4.25;2.28;;;;;;;20.57;47.21;99609.72;10410732;28;20282;-71
2023/07/03 21:18:20;;;;;;;2.50;1.88;;;;;;;20.49;46.65;99652.56;10408706;28;20236;-68
2023/07/03 21:23:21;;;;;;;3.10;2.00;;;;;;;21.08;46.14;99639.34;10414657;28;20857;-70
2023/07/03 21:28:23;;;;;;;2.83;2.30;;;;;;;21.25;45.73;99645.47;10409208;28;20350;-68
2023/07/03 21:33:25;;;;;;;2.60;1.90;;;;;;;21.99;44.13;99635.69;10414350;28;20537;-69
2023/07/03 21:38:27;;;;;;;2.95;2.33;;;;;;;20.91;46.30;99643.00;10411841;28;20263;-69
2023/07/03 21:43:29;;;;;;;1.90;1.63;;;;;;;20.36;47.47;99652.94;10414620;28;20687;-69
2023/07/03 21:48:32;;;;;;;3.50;2.42;;;;;;;19.87;47.28;99697.09;10408903;28;20687;-69
2023/07/03 21:53:35;;;;;;;2.28;1.83;;;;;;;20.22;47.42;99657.13;10414361;28;20247;-69
2023/07/03 21:58:38;;;;;;;3.22;2.08;;;;;;;19.57;48.29;99662.16;10402348;28;20782;-70
2023/07/03 22:03:39;;;;;;;2.97;2.10;;;;;;;19.42;48.50;99664.59;10405121;28;21044;-69
2023/07/03 22:08:41;;;;;;;3.80;2.03;;;;;;;19.41;48.98;99633.13;10403031;28;20275;-69
2023/07/03 22:13:44;;;;;;;2.90;2.10;;;;;;;19.63;48.58;99620.44;10408408;28;20213;-70
2023/07/03 22:18:46;;;;;;;2.80;2.10;;;;;;;19.12;49.20;99658.41;10416085;28;20754;-69
2023/07/03 22:23:50;;;;;;;2.92;2.20;;;;;;;18.67;50.45;99650.22;10409509;28;20239;-69
2023/07/03 22:28:52;;;;;;;3.17;2.05;;;;;;;18.87;49.49;99688.56;10407003;28;20236;-70
2023/07/03 22:33:53;;;;;;;2.65;2.45;;;;;;;18.31;50.89;99677.44;10417115;28;20287;-70
2023/07/03 22:38:55;;;;;;;3.75;2.13;;;;;;;18.89;50.11;99609.69;10397081;28;20307;-69
2023/07/03 22:43:57;;;;;;;4.55;2.38;;;;;;;18.69;50.48;99608.25;10408328;28;20290;-69
2023/07/03 22:48:59;;;;;;;2.33;2.13;;;;;;;18.79;50.19;99627.44;10406672;28;20844;-69
2023/07/03 22:54:09;;;;;;;2.63;1.85;;;;;;;19.17;49.25;99609.69;10407888;28;20205;-70
2023/07/03 22:59:12;;;;;;;4.73;2.00;;;;;;;18.65;50.21;99643.16;10400042;28;20862;-69
2023/07/03 23:04:16;;;;;;;2.97;2.30;;;;;;;19.38;49.38;99604.56;10416790;28;20345;-70
2023/07/03 23:09:18;;;;;;;3.67;2.40;;;;;;;19.65;48.31;99626.44;10407421;28;20231;-69
2023/07/03 23:14:20;;;;;;;5.70;2.50;;;;;;;18.91;49.96;99645.50;10409777;28;20216;-70
2023/07/03 23:19:28;;;;;;;2.15;1.95;;;;;;;19.11;49.55;99616.06;10405414;28;20312;-69
2023/07/03 23:24:30;;;;;;;2.03;1.80;;;;;;;19.56;48.96;99615.19;10408172;28;20224;-69
2023/07/03 23:29:31;;;;;;;3.47;2.28;;;;;;;18.32;51.16;99683.66;10409199;28;20234;-70
2023/07/03 23:34:33;;;;;;;3.30;2.63;;;;;;;19.81;48.39;99635.66;10406829;28;20236;-69